sensor_id;sensor_type;location;lat;lon;timestamp;P1;durP1;ratioP1;P2;durP2;ratioP2
13327;SDS011;6733;51.044;3.746;2022-11-20T00:01:07;55.90;;;33.53;;
13327;SDS011;6733;51.044;3.746;2022-11-20T00:03:37;59.53;;;34.17;;
13327;SDS011;6733;51.044;3.746;2022-11-20T00:06:04;53.60;;;32.83;;
13327;SDS011;6733;51.044;3.746;2022-11-20T00:08:32;58.10;;;32.43;;
13327;SDS011;6733;51.044;3.746;2022-11-20T00:11:02;60.53;;;33.50;;
13327;SDS011;6733;51.044;3.746;2022-11-20T00:13:33;56.93;;;34.80;;
13327;SDS011;6733;51.044;3.746;2022-11-20T00:16:00;59.60;;;35.40;;
13327;SDS011;6733;51.044;3.746;2022-11-20T00:18:27;66.50;;;36.67;;
13327;SDS011;6733;51.044;3.746;2022-11-20T00:20:59;54.67;;;33.77;;
13327;SDS011;6733;51.044;3.746;2022-11-20T00:23:26;56.67;;;34.20;;
13327;SDS011;6733;51.044;3.746;2022-11-20T00:25:53;60.47;;;34.13;;
13327;SDS011;6733;51.044;3.746;2022-11-20T00:28:19;55.47;;;34.17;;
13327;SDS011;6733;51.044;3.746;2022-11-20T00:30:45;59.70;;;34.20;;
13327;SDS011;6733;51.044;3.746;2022-11-20T00:33:11;56.73;;;33.83;;
13327;SDS011;6733;51.044;3.746;2022-11-20T00:35:37;56.07;;;32.60;;
13327;SDS011;6733;51.044;3.746;2022-11-20T00:38:03;56.00;;;34.60;;
13327;SDS011;6733;51.044;3.746;2022-11-20T00:40:30;56.17;;;32.97;;
13327;SDS011;6733;51.044;3.746;2022-11-20T00:42:56;54.23;;;33.43;;
13327;SDS011;6733;51.044;3.746;2022-11-20T00:45:22;60.07;;;33.63;;
13327;SDS011;6733;51.044;3.746;2022-11-20T00:47:48;53.77;;;32.67;;
13327;SDS011;6733;51.044;3.746;2022-11-20T00:50:14;56.60;;;32.73;;
13327;SDS011;6733;51.044;3.746;2022-11-20T00:52:40;53.90;;;31.67;;
13327;SDS011;6733;51.044;3.746;2022-11-20T00:55:06;56.60;;;32.80;;
13327;SDS011;6733;51.044;3.746;2022-11-20T00:57:33;52.50;;;31.80;;
13327;SDS011;6733;51.044;3.746;2022-11-20T00:59:59;58.27;;;31.20;;
13327;SDS011;6733;51.044;3.746;2022-11-20T01:02:25;52.97;;;31.80;;
13327;SDS011;6733;51.044;3.746;2022-11-20T01:04:51;54.07;;;32.17;;
13327;SDS011;6733;51.044;3.746;2022-11-20T01:07:17;53.57;;;32.17;;
13327;SDS011;6733;51.044;3.746;2022-11-20T01:09:43;52.73;;;31.70;;
13327;SDS011;6733;51.044;3.746;2022-11-20T01:12:09;51.00;;;32.20;;
13327;SDS011;6733;51.044;3.746;2022-11-20T01:14:35;46.97;;;31.40;;
13327;SDS011;6733;51.044;3.746;2022-11-20T01:17:01;54.33;;;32.13;;
13327;SDS011;6733;51.044;3.746;2022-11-20T01:19:28;54.10;;;31.63;;
13327;SDS011;6733;51.044;3.746;2022-11-20T01:21:54;50.03;;;31.03;;
13327;SDS011;6733;51.044;3.746;2022-11-20T01:24:20;53.57;;;31.97;;
13327;SDS011;6733;51.044;3.746;2022-11-20T01:26:48;52.57;;;30.53;;
13327;SDS011;6733;51.044;3.746;2022-11-20T01:29:20;53.17;;;32.70;;
13327;SDS011;6733;51.044;3.746;2022-11-20T01:31:48;51.57;;;30.17;;
13327;SDS011;6733;51.044;3.746;2022-11-20T01:34:15;49.93;;;30.57;;
13327;SDS011;6733;51.044;3.746;2022-11-20T01:36:43;51.67;;;31.47;;
13327;SDS011;6733;51.044;3.746;2022-11-20T01:39:11;52.83;;;31.60;;
13327;SDS011;6733;51.044;3.746;2022-11-20T01:41:45;47.50;;;30.17;;
13327;SDS011;6733;51.044;3.746;2022-11-20T01:47:17;51.13;;;31.63;;
13327;SDS011;6733;51.044;3.746;2022-11-20T01:49:51;47.83;;;30.63;;
13327;SDS011;6733;51.044;3.746;2022-11-20T01:52:23;49.87;;;30.30;;
13327;SDS011;6733;51.044;3.746;2022-11-20T01:55:01;51.27;;;30.97;;
13327;SDS011;6733;51.044;3.746;2022-11-20T01:57:31;43.47;;;30.20;;
13327;SDS011;6733;51.044;3.746;2022-11-20T02:00:10;52.57;;;31.20;;
13327;SDS011;6733;51.044;3.746;2022-11-20T02:02:39;49.57;;;30.47;;
13327;SDS011;6733;51.044;3.746;2022-11-20T02:05:16;48.17;;;30.33;;
13327;SDS011;6733;51.044;3.746;2022-11-20T02:07:48;50.97;;;31.93;;
13327;SDS011;6733;51.044;3.746;2022-11-20T02:10:16;54.73;;;30.23;;
13327;SDS011;6733;51.044;3.746;2022-11-20T02:12:42;50.33;;;30.57;;
13327;SDS011;6733;51.044;3.746;2022-11-20T02:15:27;58.37;;;32.77;;
13327;SDS011;6733;51.044;3.746;2022-11-20T02:17:53;54.50;;;32.40;;
13327;SDS011;6733;51.044;3.746;2022-11-20T02:20:20;54.97;;;32.37;;
13327;SDS011;6733;51.044;3.746;2022-11-20T02:25:38;51.63;;;32.07;;
13327;SDS011;6733;51.044;3.746;2022-11-20T02:28:06;54.83;;;31.40;;
13327;SDS011;6733;51.044;3.746;2022-11-20T02:30:32;54.43;;;32.33;;
13327;SDS011;6733;51.044;3.746;2022-11-20T02:32:59;50.60;;;31.20;;
13327;SDS011;6733;51.044;3.746;2022-11-20T02:37:52;52.07;;;32.17;;
13327;SDS011;6733;51.044;3.746;2022-11-20T02:40:20;49.20;;;31.53;;
13327;SDS011;6733;51.044;3.746;2022-11-20T02:42:46;51.20;;;32.10;;
13327;SDS011;6733;51.044;3.746;2022-11-20T02:45:12;48.73;;;29.87;;
13327;SDS011;6733;51.044;3.746;2022-11-20T02:47:39;51.40;;;32.73;;
13327;SDS011;6733;51.044;3.746;2022-11-20T02:50:05;49.63;;;31.13;;
13327;SDS011;6733;51.044;3.746;2022-11-20T02:52:31;54.97;;;31.60;;
13327;SDS011;6733;51.044;3.746;2022-11-20T02:54:58;55.97;;;32.93;;
13327;SDS011;6733;51.044;3.746;2022-11-20T02:57:24;50.57;;;31.80;;
13327;SDS011;6733;51.044;3.746;2022-11-20T02:59:50;48.47;;;30.20;;
13327;SDS011;6733;51.044;3.746;2022-11-20T03:02:16;47.80;;;30.60;;
13327;SDS011;6733;51.044;3.746;2022-11-20T03:04:42;50.10;;;30.90;;
13327;SDS011;6733;51.044;3.746;2022-11-20T03:07:08;47.67;;;30.10;;
13327;SDS011;6733;51.044;3.746;2022-11-20T03:09:35;48.33;;;30.70;;
13327;SDS011;6733;51.044;3.746;2022-11-20T03:12:01;50.53;;;30.33;;
13327;SDS011;6733;51.044;3.746;2022-11-20T03:14:28;44.73;;;30.60;;
13327;SDS011;6733;51.044;3.746;2022-11-20T03:16:54;47.90;;;32.03;;
13327;SDS011;6733;51.044;3.746;2022-11-20T03:19:21;46.87;;;29.57;;
13327;SDS011;6733;51.044;3.746;2022-11-20T03:21:47;48.60;;;30.97;;
13327;SDS011;6733;51.044;3.746;2022-11-20T03:24:13;47.93;;;30.23;;
13327;SDS011;6733;51.044;3.746;2022-11-20T03:26:40;46.03;;;29.77;;
13327;SDS011;6733;51.044;3.746;2022-11-20T03:29:06;48.30;;;30.13;;
13327;SDS011;6733;51.044;3.746;2022-11-20T03:31:37;49.37;;;30.97;;
13327;SDS011;6733;51.044;3.746;2022-11-20T03:34:08;46.93;;;29.33;;
13327;SDS011;6733;51.044;3.746;2022-11-20T03:36:39;47.70;;;28.40;;
13327;SDS011;6733;51.044;3.746;2022-11-20T03:39:07;46.90;;;30.03;;
13327;SDS011;6733;51.044;3.746;2022-11-20T03:41:38;48.40;;;29.77;;
13327;SDS011;6733;51.044;3.746;2022-11-20T03:44:06;47.47;;;29.27;;
13327;SDS011;6733;51.044;3.746;2022-11-20T03:46:35;45.00;;;29.50;;
13327;SDS011;6733;51.044;3.746;2022-11-20T03:49:02;49.67;;;30.90;;
13327;SDS011;6733;51.044;3.746;2022-11-20T03:51:29;47.03;;;29.50;;
13327;SDS011;6733;51.044;3.746;2022-11-20T03:54:02;45.60;;;29.87;;
13327;SDS011;6733;51.044;3.746;2022-11-20T03:56:31;46.13;;;28.40;;
13327;SDS011;6733;51.044;3.746;2022-11-20T03:58:59;47.90;;;29.33;;
13327;SDS011;6733;51.044;3.746;2022-11-20T04:01:26;47.20;;;30.00;;
13327;SDS011;6733;51.044;3.746;2022-11-20T04:03:55;43.57;;;28.20;;
13327;SDS011;6733;51.044;3.746;2022-11-20T04:06:26;45.90;;;30.10;;
13327;SDS011;6733;51.044;3.746;2022-11-20T04:08:54;43.47;;;28.73;;
13327;SDS011;6733;51.044;3.746;2022-11-20T04:11:22;43.17;;;28.90;;
13327;SDS011;6733;51.044;3.746;2022-11-20T04:13:53;46.53;;;29.03;;
13327;SDS011;6733;51.044;3.746;2022-11-20T04:16:22;43.90;;;28.43;;
13327;SDS011;6733;51.044;3.746;2022-11-20T04:18:53;44.17;;;28.63;;
13327;SDS011;6733;51.044;3.746;2022-11-20T04:21:20;48.80;;;29.87;;
13327;SDS011;6733;51.044;3.746;2022-11-20T04:23:47;48.67;;;29.03;;
13327;SDS011;6733;51.044;3.746;2022-11-20T04:26:13;46.13;;;29.83;;
13327;SDS011;6733;51.044;3.746;2022-11-20T04:28:39;44.27;;;29.13;;
13327;SDS011;6733;51.044;3.746;2022-11-20T04:31:07;46.50;;;30.13;;
13327;SDS011;6733;51.044;3.746;2022-11-20T04:33:35;46.33;;;28.47;;
13327;SDS011;6733;51.044;3.746;2022-11-20T04:36:03;46.93;;;30.20;;
13327;SDS011;6733;51.044;3.746;2022-11-20T04:38:31;48.07;;;29.27;;
13327;SDS011;6733;51.044;3.746;2022-11-20T04:40:58;43.97;;;28.27;;
13327;SDS011;6733;51.044;3.746;2022-11-20T04:43:25;44.20;;;26.80;;
13327;SDS011;6733;51.044;3.746;2022-11-20T04:45:55;43.47;;;28.53;;
13327;SDS011;6733;51.044;3.746;2022-11-20T04:48:23;42.80;;;27.13;;
13327;SDS011;6733;51.044;3.746;2022-11-20T04:50:50;47.13;;;27.90;;
13327;SDS011;6733;51.044;3.746;2022-11-20T04:53:17;43.63;;;28.10;;
13327;SDS011;6733;51.044;3.746;2022-11-20T04:55:44;45.60;;;27.63;;
13327;SDS011;6733;51.044;3.746;2022-11-20T04:58:10;44.17;;;28.20;;
13327;SDS011;6733;51.044;3.746;2022-11-20T05:00:37;43.47;;;27.70;;
13327;SDS011;6733;51.044;3.746;2022-11-20T05:03:03;43.40;;;28.30;;
13327;SDS011;6733;51.044;3.746;2022-11-20T05:05:30;43.30;;;29.13;;
13327;SDS011;6733;51.044;3.746;2022-11-20T05:07:57;46.17;;;28.93;;
13327;SDS011;6733;51.044;3.746;2022-11-20T05:10:26;42.53;;;27.73;;
13327;SDS011;6733;51.044;3.746;2022-11-20T05:12:53;44.53;;;28.70;;
13327;SDS011;6733;51.044;3.746;2022-11-20T05:15:19;47.77;;;28.93;;
13327;SDS011;6733;51.044;3.746;2022-11-20T05:17:49;47.63;;;29.90;;
13327;SDS011;6733;51.044;3.746;2022-11-20T05:20:16;48.40;;;28.73;;
13327;SDS011;6733;51.044;3.746;2022-11-20T05:22:42;48.10;;;28.70;;
13327;SDS011;6733;51.044;3.746;2022-11-20T05:25:09;53.73;;;29.87;;
13327;SDS011;6733;51.044;3.746;2022-11-20T05:27:36;51.30;;;29.60;;
13327;SDS011;6733;51.044;3.746;2022-11-20T05:30:03;47.50;;;29.90;;
13327;SDS011;6733;51.044;3.746;2022-11-20T05:32:30;48.93;;;30.37;;
13327;SDS011;6733;51.044;3.746;2022-11-20T05:34:56;54.00;;;30.90;;
13327;SDS011;6733;51.044;3.746;2022-11-20T05:37:22;50.27;;;30.50;;
13327;SDS011;6733;51.044;3.746;2022-11-20T05:39:48;52.90;;;30.03;;
13327;SDS011;6733;51.044;3.746;2022-11-20T05:42:15;49.77;;;29.43;;
13327;SDS011;6733;51.044;3.746;2022-11-20T05:45:03;48.80;;;28.60;;
13327;SDS011;6733;51.044;3.746;2022-11-20T05:47:33;50.27;;;30.50;;
13327;SDS011;6733;51.044;3.746;2022-11-20T05:50:00;55.53;;;31.03;;
13327;SDS011;6733;51.044;3.746;2022-11-20T05:52:30;55.43;;;31.83;;
13327;SDS011;6733;51.044;3.746;2022-11-20T05:54:56;49.47;;;29.93;;
13327;SDS011;6733;51.044;3.746;2022-11-20T05:57:22;60.83;;;32.77;;
13327;SDS011;6733;51.044;3.746;2022-11-20T05:59:48;57.40;;;32.50;;
13327;SDS011;6733;51.044;3.746;2022-11-20T06:02:15;54.73;;;30.57;;
13327;SDS011;6733;51.044;3.746;2022-11-20T06:04:41;56.10;;;32.17;;
13327;SDS011;6733;51.044;3.746;2022-11-20T06:07:07;59.10;;;32.63;;
13327;SDS011;6733;51.044;3.746;2022-11-20T06:09:33;55.00;;;30.87;;
13327;SDS011;6733;51.044;3.746;2022-11-20T06:11:59;59.77;;;33.80;;
13327;SDS011;6733;51.044;3.746;2022-11-20T06:14:25;53.77;;;32.57;;
13327;SDS011;6733;51.044;3.746;2022-11-20T06:16:51;57.77;;;32.90;;
13327;SDS011;6733;51.044;3.746;2022-11-20T06:19:18;59.80;;;31.93;;
13327;SDS011;6733;51.044;3.746;2022-11-20T06:21:44;58.87;;;33.83;;
13327;SDS011;6733;51.044;3.746;2022-11-20T06:24:10;56.03;;;30.70;;
13327;SDS011;6733;51.044;3.746;2022-11-20T06:26:36;54.40;;;29.97;;
13327;SDS011;6733;51.044;3.746;2022-11-20T06:29:03;53.33;;;30.07;;
13327;SDS011;6733;51.044;3.746;2022-11-20T06:31:30;56.57;;;31.03;;
13327;SDS011;6733;51.044;3.746;2022-11-20T06:34:01;54.03;;;31.37;;
13327;SDS011;6733;51.044;3.746;2022-11-20T06:36:27;54.13;;;32.27;;
13327;SDS011;6733;51.044;3.746;2022-11-20T06:38:53;56.10;;;30.20;;
13327;SDS011;6733;51.044;3.746;2022-11-20T06:41:20;50.17;;;29.33;;
13327;SDS011;6733;51.044;3.746;2022-11-20T06:43:47;50.87;;;28.60;;
13327;SDS011;6733;51.044;3.746;2022-11-20T06:46:14;45.30;;;27.43;;
13327;SDS011;6733;51.044;3.746;2022-11-20T06:48:43;48.00;;;29.27;;
13327;SDS011;6733;51.044;3.746;2022-11-20T06:51:09;46.50;;;28.33;;
13327;SDS011;6733;51.044;3.746;2022-11-20T06:53:35;48.13;;;29.00;;
13327;SDS011;6733;51.044;3.746;2022-11-20T06:56:02;47.13;;;28.53;;
13327;SDS011;6733;51.044;3.746;2022-11-20T06:58:30;48.03;;;28.37;;
13327;SDS011;6733;51.044;3.746;2022-11-20T07:01:00;48.63;;;27.97;;
13327;SDS011;6733;51.044;3.746;2022-11-20T07:03:31;53.57;;;29.63;;
13327;SDS011;6733;51.044;3.746;2022-11-20T07:05:58;44.50;;;26.83;;
13327;SDS011;6733;51.044;3.746;2022-11-20T07:08:25;43.23;;;26.63;;
13327;SDS011;6733;51.044;3.746;2022-11-20T07:10:51;43.23;;;27.70;;
13327;SDS011;6733;51.044;3.746;2022-11-20T07:13:18;48.63;;;28.30;;
13327;SDS011;6733;51.044;3.746;2022-11-20T07:15:44;49.73;;;30.03;;
13327;SDS011;6733;51.044;3.746;2022-11-20T07:18:10;47.70;;;28.13;;
13327;SDS011;6733;51.044;3.746;2022-11-20T07:20:36;48.10;;;28.80;;
13327;SDS011;6733;51.044;3.746;2022-11-20T07:23:02;49.40;;;28.27;;
13327;SDS011;6733;51.044;3.746;2022-11-20T07:25:28;46.90;;;27.63;;
13327;SDS011;6733;51.044;3.746;2022-11-20T07:27:59;44.97;;;27.63;;
13327;SDS011;6733;51.044;3.746;2022-11-20T07:30:26;48.07;;;28.57;;
13327;SDS011;6733;51.044;3.746;2022-11-20T07:32:53;49.40;;;28.73;;
13327;SDS011;6733;51.044;3.746;2022-11-20T07:35:21;49.37;;;27.20;;
13327;SDS011;6733;51.044;3.746;2022-11-20T07:37:48;47.50;;;28.10;;
13327;SDS011;6733;51.044;3.746;2022-11-20T07:40:15;45.77;;;27.00;;
13327;SDS011;6733;51.044;3.746;2022-11-20T07:42:47;45.07;;;27.10;;
13327;SDS011;6733;51.044;3.746;2022-11-20T07:45:21;48.67;;;28.47;;
13327;SDS011;6733;51.044;3.746;2022-11-20T07:47:49;45.33;;;28.10;;
13327;SDS011;6733;51.044;3.746;2022-11-20T07:50:16;47.77;;;26.97;;
13327;SDS011;6733;51.044;3.746;2022-11-20T07:52:42;48.30;;;28.43;;
13327;SDS011;6733;51.044;3.746;2022-11-20T07:55:09;45.23;;;26.87;;
13327;SDS011;6733;51.044;3.746;2022-11-20T07:57:36;47.03;;;27.10;;
13327;SDS011;6733;51.044;3.746;2022-11-20T08:00:03;47.63;;;27.97;;
13327;SDS011;6733;51.044;3.746;2022-11-20T08:02:31;47.93;;;26.93;;
13327;SDS011;6733;51.044;3.746;2022-11-20T08:04:57;50.07;;;27.23;;
13327;SDS011;6733;51.044;3.746;2022-11-20T08:07:23;56.37;;;28.93;;
13327;SDS011;6733;51.044;3.746;2022-11-20T08:09:49;52.97;;;29.50;;
13327;SDS011;6733;51.044;3.746;2022-11-20T08:12:18;52.03;;;28.67;;
13327;SDS011;6733;51.044;3.746;2022-11-20T08:15:04;53.33;;;29.07;;
13327;SDS011;6733;51.044;3.746;2022-11-20T08:17:31;54.70;;;28.57;;
13327;SDS011;6733;51.044;3.746;2022-11-20T08:19:57;60.37;;;30.47;;
13327;SDS011;6733;51.044;3.746;2022-11-20T08:22:23;62.83;;;29.27;;
13327;SDS011;6733;51.044;3.746;2022-11-20T08:24:50;58.33;;;28.63;;
13327;SDS011;6733;51.044;3.746;2022-11-20T08:27:16;60.43;;;29.83;;
13327;SDS011;6733;51.044;3.746;2022-11-20T08:29:43;61.33;;;31.87;;
13327;SDS011;6733;51.044;3.746;2022-11-20T08:32:09;60.47;;;30.47;;
13327;SDS011;6733;51.044;3.746;2022-11-20T08:34:35;60.70;;;27.90;;
13327;SDS011;6733;51.044;3.746;2022-11-20T08:37:02;58.00;;;29.27;;
13327;SDS011;6733;51.044;3.746;2022-11-20T08:39:28;55.70;;;31.00;;
13327;SDS011;6733;51.044;3.746;2022-11-20T08:41:54;59.87;;;29.73;;
13327;SDS011;6733;51.044;3.746;2022-11-20T08:44:20;59.67;;;30.53;;
13327;SDS011;6733;51.044;3.746;2022-11-20T08:46:46;62.33;;;31.63;;
13327;SDS011;6733;51.044;3.746;2022-11-20T08:49:13;58.60;;;30.47;;
13327;SDS011;6733;51.044;3.746;2022-11-20T08:51:40;60.83;;;31.07;;
13327;SDS011;6733;51.044;3.746;2022-11-20T08:54:07;58.20;;;29.67;;
13327;SDS011;6733;51.044;3.746;2022-11-20T08:56:34;58.53;;;28.43;;
13327;SDS011;6733;51.044;3.746;2022-11-20T08:59:01;54.60;;;28.90;;
13327;SDS011;6733;51.044;3.746;2022-11-20T09:01:27;60.93;;;29.97;;
13327;SDS011;6733;51.044;3.746;2022-11-20T09:03:55;53.27;;;28.77;;
13327;SDS011;6733;51.044;3.746;2022-11-20T09:06:25;59.93;;;30.23;;
13327;SDS011;6733;51.044;3.746;2022-11-20T09:08:52;55.23;;;27.93;;
13327;SDS011;6733;51.044;3.746;2022-11-20T09:11:19;54.93;;;29.30;;
13327;SDS011;6733;51.044;3.746;2022-11-20T09:13:45;57.33;;;28.43;;
13327;SDS011;6733;51.044;3.746;2022-11-20T09:16:11;48.33;;;26.53;;
13327;SDS011;6733;51.044;3.746;2022-11-20T09:18:37;45.93;;;27.33;;
13327;SDS011;6733;51.044;3.746;2022-11-20T09:21:13;47.13;;;27.23;;
13327;SDS011;6733;51.044;3.746;2022-11-20T09:23:39;50.27;;;26.93;;
13327;SDS011;6733;51.044;3.746;2022-11-20T09:26:07;45.53;;;26.20;;
13327;SDS011;6733;51.044;3.746;2022-11-20T09:28:35;45.90;;;25.40;;
13327;SDS011;6733;51.044;3.746;2022-11-20T09:31:05;46.50;;;24.57;;
13327;SDS011;6733;51.044;3.746;2022-11-20T09:33:33;38.67;;;23.30;;
13327;SDS011;6733;51.044;3.746;2022-11-20T09:36:00;42.50;;;24.03;;
13327;SDS011;6733;51.044;3.746;2022-11-20T09:38:26;43.73;;;24.53;;
13327;SDS011;6733;51.044;3.746;2022-11-20T09:40:55;38.10;;;22.37;;
13327;SDS011;6733;51.044;3.746;2022-11-20T09:46:38;34.57;;;21.47;;
13327;SDS011;6733;51.044;3.746;2022-11-20T09:54:40;34.47;;;20.97;;
13327;SDS011;6733;51.044;3.746;2022-11-20T09:57:10;32.23;;;20.37;;
13327;SDS011;6733;51.044;3.746;2022-11-20T09:59:42;34.47;;;21.07;;
13327;SDS011;6733;51.044;3.746;2022-11-20T10:02:26;32.60;;;19.37;;
13327;SDS011;6733;51.044;3.746;2022-11-20T10:10:15;28.60;;;18.07;;
13327;SDS011;6733;51.044;3.746;2022-11-20T10:18:06;27.80;;;17.77;;
13327;SDS011;6733;51.044;3.746;2022-11-20T10:26:02;28.13;;;17.57;;
13327;SDS011;6733;51.044;3.746;2022-11-20T10:34:06;21.00;;;12.40;;
13327;SDS011;6733;51.044;3.746;2022-11-20T10:36:54;20.20;;;13.23;;
13327;SDS011;6733;51.044;3.746;2022-11-20T10:43:01;16.47;;;11.20;;
13327;SDS011;6733;51.044;3.746;2022-11-20T10:45:11;14.67;;;9.47;;
13327;SDS011;6733;51.044;3.746;2022-11-20T10:48:12;11.93;;;8.33;;
13327;SDS011;6733;51.044;3.746;2022-11-20T10:50:52;11.23;;;7.30;;
13327;SDS011;6733;51.044;3.746;2022-11-20T10:53:35;12.87;;;6.73;;
13327;SDS011;6733;51.044;3.746;2022-11-20T10:56:05;13.67;;;6.30;;
13327;SDS011;6733;51.044;3.746;2022-11-20T10:59:06;12.87;;;7.20;;
13327;SDS011;6733;51.044;3.746;2022-11-20T11:01:51;12.53;;;6.87;;
13327;SDS011;6733;51.044;3.746;2022-11-20T11:04:25;10.77;;;5.87;;
13327;SDS011;6733;51.044;3.746;2022-11-20T11:07:12;11.03;;;6.17;;
13327;SDS011;6733;51.044;3.746;2022-11-20T11:09:49;8.07;;;5.77;;
13327;SDS011;6733;51.044;3.746;2022-11-20T11:12:18;9.73;;;6.27;;
13327;SDS011;6733;51.044;3.746;2022-11-20T11:14:50;10.13;;;5.60;;
13327;SDS011;6733;51.044;3.746;2022-11-20T11:17:45;8.07;;;5.53;;
13327;SDS011;6733;51.044;3.746;2022-11-20T11:22:46;6.60;;;4.67;;
13327;SDS011;6733;51.044;3.746;2022-11-20T11:27:49;8.20;;;5.33;;
13327;SDS011;6733;51.044;3.746;2022-11-20T11:30:17;10.90;;;5.03;;
13327;SDS011;6733;51.044;3.746;2022-11-20T11:32:45;6.80;;;4.60;;
13327;SDS011;6733;51.044;3.746;2022-11-20T11:35:27;8.00;;;4.97;;
13327;SDS011;6733;51.044;3.746;2022-11-20T11:38:01;8.70;;;5.50;;
13327;SDS011;6733;51.044;3.746;2022-11-20T11:40:35;12.17;;;5.30;;
13327;SDS011;6733;51.044;3.746;2022-11-20T11:43:15;7.70;;;4.93;;
13327;SDS011;6733;51.044;3.746;2022-11-20T11:46:22;7.10;;;4.90;;
13327;SDS011;6733;51.044;3.746;2022-11-20T11:49:01;7.57;;;5.40;;
13327;SDS011;6733;51.044;3.746;2022-11-20T11:54:15;7.43;;;5.13;;
13327;SDS011;6733;51.044;3.746;2022-11-20T11:57:05;6.57;;;4.57;;
13327;SDS011;6733;51.044;3.746;2022-11-20T12:03:21;9.07;;;5.07;;
13327;SDS011;6733;51.044;3.746;2022-11-20T12:05:43;8.23;;;5.10;;
13327;SDS011;6733;51.044;3.746;2022-11-20T12:13:37;13.30;;;6.73;;
13327;SDS011;6733;51.044;3.746;2022-11-20T12:16:11;10.30;;;7.10;;
13327;SDS011;6733;51.044;3.746;2022-11-20T12:18:39;10.13;;;5.90;;
13327;SDS011;6733;51.044;3.746;2022-11-20T12:23:50;8.47;;;5.57;;
13327;SDS011;6733;51.044;3.746;2022-11-20T12:26:35;7.37;;;5.30;;
13327;SDS011;6733;51.044;3.746;2022-11-20T12:29:56;5.43;;;4.47;;
13327;SDS011;6733;51.044;3.746;2022-11-20T12:40:49;8.13;;;5.53;;
13327;SDS011;6733;51.044;3.746;2022-11-20T12:43:30;9.10;;;5.93;;
13327;SDS011;6733;51.044;3.746;2022-11-20T12:46:49;11.30;;;7.30;;
13327;SDS011;6733;51.044;3.746;2022-11-20T12:50:27;7.70;;;5.77;;
13327;SDS011;6733;51.044;3.746;2022-11-20T12:52:53;9.17;;;5.77;;
13327;SDS011;6733;51.044;3.746;2022-11-20T13:07:14;6.17;;;4.67;;
13327;SDS011;6733;51.044;3.746;2022-11-20T13:09:46;6.37;;;5.23;;
13327;SDS011;6733;51.044;3.746;2022-11-20T13:12:16;7.47;;;5.20;;
13327;SDS011;6733;51.044;3.746;2022-11-20T13:14:56;7.87;;;5.20;;
13327;SDS011;6733;51.044;3.746;2022-11-20T13:20:16;7.30;;;4.17;;
13327;SDS011;6733;51.044;3.746;2022-11-20T13:22:45;5.67;;;4.53;;
13327;SDS011;6733;51.044;3.746;2022-11-20T13:27:53;5.57;;;4.37;;
13327;SDS011;6733;51.044;3.746;2022-11-20T13:30:21;5.43;;;4.23;;
13327;SDS011;6733;51.044;3.746;2022-11-20T13:35:23;5.10;;;4.70;;
13327;SDS011;6733;51.044;3.746;2022-11-20T13:38:01;4.43;;;3.90;;
13327;SDS011;6733;51.044;3.746;2022-11-20T13:41:00;37.80;;;11.90;;
13327;SDS011;6733;51.044;3.746;2022-11-20T13:43:48;4.97;;;4.57;;
13327;SDS011;6733;51.044;3.746;2022-11-20T13:46:15;21.33;;;6.87;;
13327;SDS011;6733;51.044;3.746;2022-11-20T13:51:28;7.80;;;4.90;;
13327;SDS011;6733;51.044;3.746;2022-11-20T13:59:52;6.10;;;4.60;;
13327;SDS011;6733;51.044;3.746;2022-11-20T14:02:36;4.10;;;3.67;;
13327;SDS011;6733;51.044;3.746;2022-11-20T14:05:02;5.87;;;4.20;;
13327;SDS011;6733;51.044;3.746;2022-11-20T14:07:40;4.87;;;3.57;;
13327;SDS011;6733;51.044;3.746;2022-11-20T14:12:39;4.30;;;3.90;;
13327;SDS011;6733;51.044;3.746;2022-11-20T14:15:23;4.20;;;3.80;;
13327;SDS011;6733;51.044;3.746;2022-11-20T14:17:59;7.27;;;3.80;;
13327;SDS011;6733;51.044;3.746;2022-11-20T14:20:37;5.67;;;4.03;;
13327;SDS011;6733;51.044;3.746;2022-11-20T14:23:04;4.77;;;3.77;;
13327;SDS011;6733;51.044;3.746;2022-11-20T14:25:30;3.67;;;3.37;;
13327;SDS011;6733;51.044;3.746;2022-11-20T14:27:57;5.07;;;3.83;;
13327;SDS011;6733;51.044;3.746;2022-11-20T14:30:44;4.37;;;3.57;;
13327;SDS011;6733;51.044;3.746;2022-11-20T14:33:13;4.67;;;4.00;;
13327;SDS011;6733;51.044;3.746;2022-11-20T14:35:44;5.00;;;3.73;;
13327;SDS011;6733;51.044;3.746;2022-11-20T14:38:15;5.47;;;4.30;;
13327;SDS011;6733;51.044;3.746;2022-11-20T14:40:44;7.07;;;4.63;;
13327;SDS011;6733;51.044;3.746;2022-11-20T14:45:56;4.63;;;4.17;;
13327;SDS011;6733;51.044;3.746;2022-11-20T14:48:28;6.30;;;4.63;;
13327;SDS011;6733;51.044;3.746;2022-11-20T14:50:57;6.20;;;4.57;;
13327;SDS011;6733;51.044;3.746;2022-11-20T14:53:24;4.33;;;3.93;;
13327;SDS011;6733;51.044;3.746;2022-11-20T14:55:54;6.50;;;4.33;;
13327;SDS011;6733;51.044;3.746;2022-11-20T14:58:23;8.47;;;4.67;;
13327;SDS011;6733;51.044;3.746;2022-11-20T15:00:55;5.83;;;3.73;;
13327;SDS011;6733;51.044;3.746;2022-11-20T15:03:30;10.97;;;4.53;;
13327;SDS011;6733;51.044;3.746;2022-11-20T15:06:01;7.60;;;4.20;;
13327;SDS011;6733;51.044;3.746;2022-11-20T15:08:28;7.57;;;4.37;;
13327;SDS011;6733;51.044;3.746;2022-11-20T15:10:55;11.03;;;5.20;;
13327;SDS011;6733;51.044;3.746;2022-11-20T15:13:32;11.43;;;5.03;;
13327;SDS011;6733;51.044;3.746;2022-11-20T15:16:00;9.10;;;4.13;;
13327;SDS011;6733;51.044;3.746;2022-11-20T15:18:30;10.43;;;3.73;;
13327;SDS011;6733;51.044;3.746;2022-11-20T15:21:02;11.63;;;3.97;;
13327;SDS011;6733;51.044;3.746;2022-11-20T15:23:33;16.93;;;3.87;;
13327;SDS011;6733;51.044;3.746;2022-11-20T15:26:00;9.53;;;3.43;;
13327;SDS011;6733;51.044;3.746;2022-11-20T15:28:30;8.90;;;4.20;;
13327;SDS011;6733;51.044;3.746;2022-11-20T15:30:59;9.90;;;3.23;;
13327;SDS011;6733;51.044;3.746;2022-11-20T15:33:27;10.57;;;3.87;;
13327;SDS011;6733;51.044;3.746;2022-11-20T15:35:54;16.07;;;3.73;;
13327;SDS011;6733;51.044;3.746;2022-11-20T15:38:20;7.53;;;3.70;;
13327;SDS011;6733;51.044;3.746;2022-11-20T15:40:49;15.87;;;4.53;;
13327;SDS011;6733;51.044;3.746;2022-11-20T15:43:15;11.53;;;3.40;;
13327;SDS011;6733;51.044;3.746;2022-11-20T15:45:46;8.73;;;3.77;;
13327;SDS011;6733;51.044;3.746;2022-11-20T15:48:21;19.53;;;4.30;;
13327;SDS011;6733;51.044;3.746;2022-11-20T15:50:54;19.07;;;4.33;;
13327;SDS011;6733;51.044;3.746;2022-11-20T15:53:38;16.50;;;5.23;;
13327;SDS011;6733;51.044;3.746;2022-11-20T15:56:06;19.40;;;5.67;;
13327;SDS011;6733;51.044;3.746;2022-11-20T15:58:39;15.73;;;4.67;;
13327;SDS011;6733;51.044;3.746;2022-11-20T16:01:13;18.27;;;4.40;;
13327;SDS011;6733;51.044;3.746;2022-11-20T16:03:44;18.93;;;5.97;;
13327;SDS011;6733;51.044;3.746;2022-11-20T16:06:11;15.87;;;4.40;;
13327;SDS011;6733;51.044;3.746;2022-11-20T16:08:37;12.97;;;4.67;;
13327;SDS011;6733;51.044;3.746;2022-11-20T16:11:03;13.67;;;4.67;;
13327;SDS011;6733;51.044;3.746;2022-11-20T16:13:31;22.73;;;5.07;;
13327;SDS011;6733;51.044;3.746;2022-11-20T16:16:19;22.90;;;5.50;;
13327;SDS011;6733;51.044;3.746;2022-11-20T16:18:48;11.93;;;4.23;;
13327;SDS011;6733;51.044;3.746;2022-11-20T16:21:15;15.47;;;4.57;;
13327;SDS011;6733;51.044;3.746;2022-11-20T16:23:41;18.83;;;5.87;;
13327;SDS011;6733;51.044;3.746;2022-11-20T16:26:12;19.13;;;5.40;;
13327;SDS011;6733;51.044;3.746;2022-11-20T16:28:39;19.07;;;5.43;;
13327;SDS011;6733;51.044;3.746;2022-11-20T16:31:13;19.93;;;4.50;;
13327;SDS011;6733;51.044;3.746;2022-11-20T16:33:40;18.40;;;4.40;;
13327;SDS011;6733;51.044;3.746;2022-11-20T16:36:10;15.60;;;5.10;;
13327;SDS011;6733;51.044;3.746;2022-11-20T16:38:38;20.37;;;5.50;;
13327;SDS011;6733;51.044;3.746;2022-11-20T16:41:04;18.40;;;5.17;;